首页
METAR-TAF:

METAR-TAF

机场 :

Felker Army Airfield

Fort Eustis, 弗吉尼亚州, 美国

纬度: 37-08N, 经度: 076-37W, 海拔: 4米

当前天气观测

该预报发布于47分钟前的07:56 UTC
风速3节,风向北转东北
温度 1°C
湿度 75%
气压 1016 hPa
能見度: 16.1公里
天空无云

METAR: KFAF 170756Z AUTO 03003KT 10SM CLR 01/M03 A3001 RMK AO2 SLP166 T00121027 $

时间: 03:43 (08:43 UTC)

预报

该预报发布于13小时和43分钟前的19:00 UTC
预报有效从15日的 19点(UTC)到 17日的 01点(UTC)
风速15节,风向西南,有时为20节阵风
能见度10公里或以上
少量云层高于20000英尺
成为
从 15日的 21点(UTC)到 15日的 22点(UTC)
风速12节,风向西南
能见度10公里或以上
散云层高于3000英尺
成为
从 16日的 07点(UTC)到 16日的 08点(UTC)
风速6节,风向多变
能見度: 8000
多云层高于2000英尺
小雨, 轻雾
成为
从 16日的 10点(UTC)到 16日的 11点(UTC)
风速12节,风向北转东北,有时为18节阵风
能见度10公里或以上
多云层高于2000英尺
成为
从 16日的 13点(UTC)到 16日的 14点(UTC)
风速12节,风向北转东北,有时为18节阵风
能見度: 9000
阴天层高于1000英尺
小雨
成为
从 16日的 20点(UTC)到 16日的 21点(UTC)
风速12节,风向北转东北
能见度10公里或以上
多云层高于4000英尺
成为
从 16日的 23点(UTC)到 16日的 24点(UTC)
风速6节,风向东北
能見度: 1911
多云层高于4500英尺

TAF: KFAF 151900Z 1519/1701 22015G20KT 9999 FEW200 QNH2974INS BECMG 1521/1522 22012KT 9999 SCT030 WS020/23030KT QNH2973INS BECMG 1607/1608 VRB06KT 8000 -RA BR BKN020 QNH2977INS BECMG 1610/1611 02012G18KT 9999 NSW BKN020 QNH2982INS BECMG 1613/1614 02012G18KT 9000 -RA OVC010 QNH2986INS BECMG 1620/1621 03012KT 9999 NSW BKN040 QNH2986INS BECMG 1623/1624 04006KT 9999 BKN045 QNH2990INS TX19/1519Z TN02/1618Z LAST NO AMDS AFT 1604 NEXT 1911

超过4000个机场的气象观测和天气预报(METAR&TAF报告)。

可查询的气象台以黄色和红色小点在地图上表示。

将鼠标移到小点上方,可查看气象台名称。

然后点击查看天气观测和预报。

如需切换地图:点击带黑十字的绿色按钮放大地图;点击带横线的绿色按钮缩小地图;或者点击绿色箭头查看邻近地区的地图。


METAR-TAF: